Latest Weather Observations for Christmas Island

IDW60801

Issued at 2:34 am WST Friday 30 September 2016 (issued every 30 minutes, with the page automatically refreshed every 10 minutes)

About weather observations | Map of weather stations | Latest weather observations for WA | Other Formats
Station Details ID: 200790 Name: CHRISTMAS ISLAND AERO Lat: -10.45 Lon: 105.69 Height: 261.0 m
Data from the previous 72 hours. | See also: Recent months at Christmas Island
Date/Time
WST
Temp
°C
App
Temp
°C
Dew
Point
°C
Rel
Hum
%
Delta-T
°C
Wind Press
QNH
hPa
Press
MSL
hPa
Rain since
9am
mm
Dir  Spd
km/h
Gust
km/h
Spd
kts
Gust
kts
30/02:30am 22.9 27.9 22.5 98 0.3 CALM 0 0 0 0 1010.0 - 7.0
30/02:28am 22.9 28.0 22.6 98 0.2 CALM 0 0 0 0 1010.0 - 7.0
30/02:11am 22.8 27.7 22.4 98 0.3 CALM 0 0 0 0 1010.2 - 7.0
30/02:01am 22.8 27.7 22.4 98 0.3 CALM 0 0 0 0 1010.2 - 7.0
30/02:00am 22.8 27.7 22.4 98 0.3 CALM 0 0 0 0 1010.2 - 7.0
30/01:31am 22.8 27.7 22.4 98 0.3 CALM 0 0 0 0 1010.4 - 7.0
30/01:30am 22.8 27.7 22.4 98 0.3 CALM 0 0 0 0 1010.4 - 7.0
30/01:22am 22.9 27.8 22.3 96 0.4 CALM 0 0 0 0 1010.5 - 7.0
30/01:18am 22.8 27.7 22.4 98 0.3 CALM 0 0 0 0 1010.6 - 7.0
30/01:00am 22.7 27.5 22.1 96 0.4 CALM 0 0 0 0 1010.8 1009.4 7.0
30/12:52am 22.7 27.5 22.1 96 0.4 CALM 0 0 0 0 1010.8 - 7.0
30/12:30am 22.7 27.5 22.1 96 0.4 CALM 0 0 0 0 1011.0 - 7.0
30/12:22am 22.6 27.4 22.2 98 0.3 CALM 0 0 0 0 1011.2 - 7.0
30/12:05am 22.5 27.2 21.9 96 0.4 CALM 0 0 0 0 1011.4 - 7.0
30/12:00am 22.4 27.1 22.0 98 0.3 CALM 0 0 0 0 1011.5 - 7.0
 
Date/Time
WST
Temp
°C
App
Temp
°C
Dew
Point
°C
Rel
Hum
%
Delta-T
°C
Wind Press
QNH
hPa
Press
MSL
hPa
Rain since
9am
mm
Dir  Spd
km/h
Gust
km/h
Spd
kts
Gust
kts
29/11:30pm 22.6 27.4 22.2 98 0.3 CALM 0 2 0 1 1011.6 - 7.0
29/11:00pm 22.6 27.3 22.0 96 0.4 CALM 0 0 0 0 1011.5 - 7.0
29/10:30pm 22.9 27.8 22.3 96 0.4 CALM 0 0 0 0 1011.4 - 7.0
29/10:00pm 23.2 27.5 22.6 96 0.4 N 4 6 2 3 1011.3 1009.9 7.0
29/09:30pm 23.4 27.8 22.8 96 0.4 N 4 6 2 3 1010.9 - 7.0
29/09:07pm 23.6 27.7 23.0 96 0.4 N 6 7 3 4 1010.9 - 7.0
29/09:00pm 23.6 27.7 23.0 96 0.4 N 6 7 3 4 1010.8 - 7.0
29/08:30pm 23.8 28.4 23.1 96 0.5 N 4 7 2 4 1010.5 - 7.0
29/08:27pm 23.8 28.7 23.1 96 0.5 N 2 7 1 4 1010.5 - 7.0
29/08:07pm 23.9 28.6 23.3 96 0.4 N 4 7 2 4 1010.3 - 7.0
29/08:00pm 23.9 28.1 23.2 96 0.5 N 6 7 3 4 1010.2 - 7.0
29/07:58pm 24.0 28.2 23.1 95 0.6 N 6 7 3 4 1010.2 - 7.0
29/07:30pm 24.1 29.5 23.2 95 0.6 CALM 0 0 0 0 1010.2 - 7.0
29/07:24pm 24.1 29.6 23.4 96 0.5 CALM 0 0 0 0 1010.2 - 7.0
29/07:00pm 24.5 29.3 23.5 94 0.7 N 4 7 2 4 1009.9 1008.5 7.0
29/06:43pm 24.7 29.9 23.5 93 0.8 N 2 6 1 3 1009.8 - 7.0
29/06:30pm 24.9 30.3 23.3 91 1.1 CALM 0 0 0 0 1009.7 - 7.0
29/06:17pm 25.0 29.6 23.1 89 1.3 N 4 9 2 5 1009.6 - 7.0
29/06:00pm 25.3 29.7 23.4 89 1.3 N 6 7 3 4 1009.4 - 7.0
29/05:30pm 26.0 30.1 23.2 84 1.9 N 7 13 4 7 1009.2 - 7.0
29/05:00pm 26.3 29.4 22.8 81 2.4 N 11 17 6 9 1009.1 - 7.0
29/04:30pm 26.6 30.0 23.4 82 2.2 N 11 13 6 7 1009.1 - 7.0
29/04:00pm 25.8 29.5 23.2 85 1.8 N 9 17 5 9 1009.0 1007.5 7.0
29/03:50pm 25.9 28.7 23.0 84 2.0 N 13 17 7 9 1008.9 - 7.0
29/03:30pm 26.9 30.1 23.7 82 2.2 N 13 17 7 9 1008.9 - 7.0
29/03:00pm 26.1 29.6 23.5 85 1.8 N 11 17 6 9 1009.4 - 7.0
29/02:50pm 25.8 29.6 23.5 87 1.6 N 9 13 5 7 1009.5 - 7.0
29/02:30pm 25.4 29.4 23.8 91 1.1 N 9 17 5 9 1009.6 - 7.0
29/02:07pm 24.9 29.0 23.9 94 0.7 N 9 15 5 8 1009.6 - 7.0
29/02:00pm 24.7 29.1 23.8 95 0.6 N 7 11 4 6 1009.7 - 7.0
29/01:45pm 24.2 28.7 23.6 96 0.4 N 6 11 3 6 1009.9 - 7.0
29/01:32pm 23.7 27.7 23.1 96 0.4 N 7 11 4 6 1010.1 - 7.0
29/01:30pm 23.5 27.4 22.9 96 0.4 N 7 11 4 6 1010.2 - 7.0
29/01:00pm 23.6 28.7 23.3 98 0.2 ENE 2 7 1 4 1010.5 1009.1 6.0
29/12:30pm 23.5 27.1 23.1 98 0.3 ENE 9 13 5 7 1010.8 - 3.0
29/12:18pm 23.7 27.4 23.3 98 0.3 ENE 9 13 5 7 1010.9 - 1.4
29/12:09pm 23.8 27.6 23.5 98 0.2 ENE 9 13 5 7 1011.0 - 1.2
29/12:00pm 23.7 27.1 23.3 98 0.3 ENE 11 13 6 7 1011.1 - 1.2
29/11:51am 23.7 26.7 23.4 98 0.2 ENE 13 17 7 9 1011.1 - 1.0
29/11:48am 23.8 26.9 23.5 98 0.2 ENE 13 17 7 9 1011.2 - 1.0
29/11:45am 23.9 27.0 23.5 98 0.3 ENE 13 17 7 9 1011.2 - 1.0
29/11:44am 23.9 27.0 23.6 98 0.2 ENE 13 17 7 9 1011.2 - 1.0
29/11:40am 24.0 27.2 23.7 98 0.2 ENE 13 15 7 8 1011.2 - 1.0
29/11:34am 23.9 27.8 23.6 98 0.2 ENE 9 15 5 8 1011.1 - 1.0
29/11:32am 23.9 27.8 23.6 98 0.2 ENE 9 15 5 8 1011.1 - 1.0
29/11:30am 24.0 28.0 23.7 98 0.2 ENE 9 13 5 7 1011.1 - 1.0
29/11:16am 23.9 27.8 23.6 98 0.2 ENE 9 13 5 7 1011.3 - 0.8
29/11:14am 23.9 27.8 23.6 98 0.2 ENE 9 13 5 7 1011.4 - 0.8
29/11:00am 23.9 27.8 23.6 98 0.2 ENE 9 13 5 7 1011.7 - 0.8
29/10:46am 23.8 27.3 23.5 98 0.2 ENE 11 17 6 9 1011.9 - 0.8
29/10:45am 23.8 27.3 23.5 98 0.2 ENE 11 17 6 9 1011.9 - 0.8
29/10:31am 23.8 27.3 23.5 98 0.2 E 11 17 6 9 1012.2 - 0.6
29/10:30am 23.9 27.4 23.6 98 0.2 E 11 15 6 8 1012.2 - 0.6
29/10:28am 23.9 27.8 23.6 98 0.2 ESE 9 15 5 8 1012.2 - 0.6
29/10:07am 23.6 27.0 23.3 98 0.2 ESE 11 17 6 9 1011.9 - 0.0
29/10:06am 23.6 27.0 23.3 98 0.2 ESE 11 17 6 9 1011.9 - 0.0
29/10:03am 23.5 26.8 23.2 98 0.2 ESE 11 17 6 9 1011.9 - 0.0
29/10:00am 23.5 26.8 23.2 98 0.2 ESE 11 17 6 9 1011.8 1010.4 76.2
29/09:56am 23.4 26.6 23.1 98 0.2 ESE 11 17 6 9 1011.8 - 76.0
29/09:55am 23.4 26.6 23.1 98 0.2 ESE 11 17 6 9 1011.8 - 76.0
29/09:53am 23.4 26.6 23.1 98 0.2 ESE 11 17 6 9 1011.8 - 76.0
29/09:35am 23.6 27.3 23.2 98 0.3 ESE 9 15 5 8 1011.7 - 75.6
29/09:30am 23.5 27.2 23.2 98 0.2 ESE 9 13 5 7 1011.7 - 75.6
29/09:18am 23.3 27.2 23.0 98 0.2 ESE 7 11 4 6 1011.7 - 75.0
29/09:00am 23.3 26.8 22.9 98 0.3 E 9 13 5 7 1011.6 - 74.4
29/08:30am 23.2 25.6 22.9 98 0.2 E 15 20 8 11 1011.2 - 72.8
29/08:14am 23.9 27.0 23.6 98 0.2 ESE 13 19 7 10 1011.0 - 70.6
29/08:13am 24.0 27.5 23.6 98 0.3 ESE 11 19 6 10 1011.0 - 70.6
29/08:05am 23.7 27.9 23.4 98 0.2 ESE 7 13 4 7 1010.9 - 70.2
29/08:04am 23.7 27.5 23.4 98 0.2 ESE 9 13 5 7 1010.9 - 70.0
29/08:00am 23.7 27.5 23.4 98 0.2 ESE 9 13 5 7 1010.8 - 70.0
29/07:30am 23.5 27.2 23.2 98 0.2 ESE 9 13 5 7 1010.7 - 69.2
29/07:00am 23.7 27.1 23.3 98 0.3 ESE 11 17 6 9 1010.2 1008.8 69.0
29/06:59am 23.7 26.7 23.3 98 0.3 ESE 13 17 7 9 1010.2 - 69.0
29/06:47am 23.9 27.4 23.6 98 0.2 ESE 11 15 6 8 1010.0 - 68.8
29/06:41am 23.9 27.0 23.5 98 0.3 ESE 13 19 7 10 1009.9 - 68.8
29/06:38am 23.9 26.7 23.6 98 0.2 ESE 15 19 8 10 1009.9 - 68.8
29/06:30am 23.9 27.0 23.5 98 0.3 SE 13 20 7 11 1009.8 - 68.8
29/06:12am 23.6 27.0 23.3 98 0.2 ESE 11 20 6 11 1009.9 - 68.8
29/06:03am 23.6 25.8 23.3 98 0.2 ESE 17 24 9 13 1009.7 - 68.8
29/06:02am 23.7 26.0 23.4 98 0.2 ESE 17 24 9 13 1009.7 - 68.8
29/06:00am 23.8 26.1 23.5 98 0.2 ESE 17 24 9 13 1009.6 - 68.6
29/05:55am 23.9 26.3 23.6 98 0.2 ESE 17 24 9 13 1009.4 - 68.6
29/05:50am 23.9 26.3 23.6 98 0.2 ESE 17 22 9 12 1009.3 - 68.6
29/05:49am 24.0 26.4 23.7 98 0.2 ESE 17 22 9 12 1009.2 - 68.6
29/05:41am 23.7 26.7 23.4 98 0.2 ESE 13 19 7 10 1009.1 - 68.6
29/05:31am 23.7 27.1 23.3 98 0.3 ESE 11 20 6 11 1009.2 - 68.4
29/05:30am 23.7 27.1 23.3 98 0.3 ESE 11 20 6 11 1009.3 - 68.4
29/05:07am 23.5 27.7 23.1 98 0.3 N 6 9 3 5 1009.2 - 68.4
29/05:06am 23.5 27.5 23.1 98 0.3 N 7 9 4 5 1009.2 - 68.4
29/05:05am 23.4 27.4 23.1 98 0.2 N 7 9 4 5 1009.2 - 68.4
29/05:00am 23.5 27.7 23.1 98 0.3 N 6 7 3 4 1009.3 - 68.4
29/04:45am 23.4 27.3 23.0 98 0.3 N 7 9 4 5 1009.5 - 68.4
29/04:40am 23.3 27.2 22.9 98 0.3 N 7 9 4 5 1009.5 - 68.4
29/04:34am 23.1 27.4 22.7 98 0.3 N 4 9 2 5 1009.4 - 68.4
29/04:30am 22.9 27.4 22.3 96 0.4 N 2 9 1 5 1009.4 - 68.4
29/04:00am 22.9 26.6 22.5 98 0.3 N 7 9 4 5 1009.4 1007.9 68.4
29/03:38am 22.6 25.6 22.0 96 0.4 N 9 13 5 7 1009.6 - 68.4
29/03:30am 22.6 25.6 21.9 96 0.5 N 9 13 5 7 1009.6 - 68.0
29/03:28am 22.5 25.4 21.8 96 0.5 NNE 9 13 5 7 1009.6 - 68.0
29/03:00am 23.4 25.8 23.0 98 0.3 ENE 15 22 8 12 1010.1 - 63.0
29/02:30am 24.1 27.9 23.5 96 0.4 ESE 9 15 5 8 1009.9 - 27.2
29/02:29am 24.1 28.1 23.7 98 0.3 ESE 9 15 5 8 1009.9 - 27.2
29/02:00am 24.2 27.7 23.6 96 0.4 ENE 11 19 6 10 1010.1 - 27.0
29/01:53am 23.9 27.2 23.2 96 0.5 E 11 17 6 9 1010.1 - 27.0
29/01:30am 24.4 27.8 24.0 98 0.3 ENE 13 19 7 10 1010.4 - 27.0
29/01:13am 24.2 27.7 23.6 96 0.4 ENE 11 17 6 9 1010.7 - 26.8
29/01:09am 24.1 27.6 23.5 96 0.4 E 11 19 6 10 1010.8 - 26.8
29/01:00am 24.0 26.7 23.4 96 0.4 E 15 22 8 12 1010.9 1009.5 26.8
29/12:58am 24.1 27.1 23.4 96 0.5 E 13 22 7 12 1011.0 - 26.8
29/12:30am 24.2 28.0 23.5 96 0.5 ENE 9 17 5 9 1011.3 - 26.8
29/12:00am 24.4 27.7 23.8 96 0.4 E 13 19 7 10 1011.4 - 26.8
 
Date/Time
WST
Temp
°C
App
Temp
°C
Dew
Point
°C
Rel
Hum
%
Delta-T
°C
Wind Press
QNH
hPa
Press
MSL
hPa
Rain since
9am
mm
Dir  Spd
km/h
Gust
km/h
Spd
kts
Gust
kts
28/11:30pm 24.4 27.4 23.4 94 0.7 NNE 13 17 7 9 1011.5 - 26.8
28/11:00pm 24.3 27.1 23.6 96 0.5 NE 15 20 8 11 1011.7 - 26.8
28/10:30pm 24.0 27.0 23.3 96 0.5 NE 13 17 7 9 1011.6 - 26.8
28/10:00pm 23.9 27.6 23.3 96 0.4 ENE 9 13 5 7 1011.4 1010.0 26.8
28/09:30pm 23.8 27.5 23.2 96 0.4 E 9 11 5 6 1011.0 - 26.8
28/09:00pm 24.2 27.8 23.8 98 0.3 E 11 15 6 8 1010.6 - 26.8
28/08:35pm 24.0 27.5 23.6 98 0.3 E 11 22 6 12 1010.4 - 26.8
28/08:30pm 23.9 27.4 23.6 98 0.2 E 11 19 6 10 1010.4 - 26.8
28/08:27pm 23.8 27.3 23.5 98 0.2 E 11 20 6 11 1010.4 - 26.8
28/08:00pm 23.6 26.7 23.5 99 0.1 E 13 26 7 14 1010.1 - 26.6
28/07:58pm 23.6 26.7 23.5 99 0.1 E 13 26 7 14 1010.2 - 26.6
28/07:49pm 23.5 25.2 23.4 99 0.1 SE 20 33 11 18 1010.0 - 25.2
28/07:48pm 23.5 25.3 23.2 98 0.2 ESE 19 33 10 18 1009.9 - 25.2
28/07:47pm 23.4 25.2 23.3 99 0.1 ESE 19 33 10 18 1009.9 - 25.0
28/07:30pm 23.4 24.2 23.1 98 0.2 ESE 24 35 13 19 1009.7 - 23.4
28/07:28pm 23.4 23.8 23.1 98 0.2 ESE 26 35 14 19 1009.7 - 23.4
28/07:23pm 23.5 24.3 23.2 98 0.2 ESE 24 35 13 19 1009.6 - 23.2
28/07:22pm 23.6 24.9 23.3 98 0.2 ESE 22 35 12 19 1009.5 - 23.2
28/07:17pm 23.6 24.5 23.3 98 0.2 ESE 24 35 13 19 1009.5 - 23.2
28/07:05pm 23.4 24.3 23.3 99 0.1 SE 24 41 13 22 1009.4 - 22.0
28/07:00pm 23.4 23.8 23.1 98 0.2 ESE 26 41 14 22 1009.4 1007.9 21.4
28/06:56pm 23.2 23.5 22.9 98 0.2 ESE 26 41 14 22 1009.2 - 21.0
28/06:52pm 23.3 24.0 23.0 98 0.2 ESE 24 33 13 18 1009.2 - 20.6
28/06:51pm 23.3 24.0 23.0 98 0.2 ESE 24 39 13 21 1009.2 - 20.4
28/06:49pm 23.2 24.0 23.1 99 0.1 ESE 24 39 13 21 1009.2 - 19.8
28/06:46pm 23.5 24.1 23.4 99 0.1 ESE 26 41 14 22 1009.1 - 19.6
28/06:30pm 22.9 23.4 22.6 98 0.2 E 24 37 13 20 1009.0 - 12.4
28/06:21pm 23.8 24.4 23.5 98 0.2 SE 26 39 14 21 1008.8 - 10.4
28/06:10pm 23.7 24.3 23.4 98 0.2 SE 26 39 14 21 1008.8 - 10.2
28/06:09pm 23.7 24.3 23.4 98 0.2 SE 26 39 14 21 1008.9 - 10.2
28/06:06pm 23.6 23.7 23.3 98 0.2 SE 28 41 15 22 1008.8 - 10.2
28/06:04pm 23.6 23.7 23.3 98 0.2 SE 28 43 15 23 1008.8 - 10.2
28/06:02pm 23.7 23.9 23.4 98 0.2 SE 28 43 15 23 1008.8 - 10.2
28/06:00pm 23.6 23.8 23.5 99 0.1 SE 28 43 15 23 1008.8 - 10.2
28/05:45pm 23.6 24.1 23.3 98 0.2 SE 26 37 14 20 1008.8 - 10.2
28/05:44pm 23.6 24.1 23.3 98 0.2 SE 26 37 14 20 1008.8 - 10.0
28/05:39pm 23.6 24.5 23.3 98 0.2 SE 24 37 13 20 1008.8 - 10.0
28/05:35pm 23.6 25.2 23.3 98 0.2 SE 20 33 11 18 1008.8 - 10.0
28/05:30pm 23.5 25.1 23.2 98 0.2 SE 20 33 11 18 1008.8 - 10.0
28/05:24pm 23.4 24.5 23.1 98 0.2 SE 22 33 12 18 1008.9 - 9.6
28/05:19pm 23.3 24.4 23.0 98 0.2 SE 22 32 12 17 1008.9 - 9.6
28/05:00pm 23.5 24.3 23.2 98 0.2 SE 24 35 13 19 1008.6 - 9.0
28/04:59pm 23.5 24.3 23.2 98 0.2 SE 24 35 13 19 1008.6 - 9.0
28/04:58pm 23.5 24.3 23.2 98 0.2 SE 24 35 13 19 1008.7 - 9.0
28/04:50pm 23.6 24.4 23.2 98 0.3 SE 24 37 13 20 1008.8 - 9.0
28/04:36pm 23.5 24.4 23.4 99 0.1 SE 24 37 13 20 1008.8 - 8.4
28/04:35pm 23.6 24.5 23.3 98 0.2 SE 24 37 13 20 1008.8 - 8.4
28/04:33pm 23.6 24.5 23.3 98 0.2 SE 24 35 13 19 1008.8 - 8.4
28/04:31pm 23.6 24.5 23.3 98 0.2 SE 24 35 13 19 1008.9 - 8.4
28/04:30pm 23.6 24.5 23.3 98 0.2 SE 24 35 13 19 1008.9 - 8.4
28/04:19pm 23.6 24.8 23.2 98 0.3 SE 22 37 12 20 1008.9 - 8.4
28/04:12pm 23.5 24.7 23.2 98 0.2 SE 22 32 12 17 1008.9 - 8.2
28/04:08pm 23.4 24.5 23.1 98 0.2 SE 22 32 12 17 1008.9 - 8.2
28/04:03pm 23.4 24.2 23.1 98 0.2 SE 24 39 13 21 1008.9 - 8.2
28/04:01pm 23.4 24.2 23.1 98 0.2 SE 24 39 13 21 1008.9 - 8.2
28/04:00pm 23.4 24.2 23.1 98 0.2 SE 24 39 13 21 1009.0 1007.5 8.2
28/03:59pm 23.5 24.3 23.2 98 0.2 SE 24 39 13 21 1008.9 - 8.2
28/03:56pm 23.5 24.3 23.1 98 0.3 SE 24 39 13 21 1008.9 - 8.0
28/03:47pm 23.5 23.9 23.2 98 0.2 SE 26 39 14 21 1008.9 - 7.6
28/03:35pm 23.5 23.9 23.1 98 0.3 SE 26 37 14 20 1008.9 - 7.4
28/03:34pm 23.5 23.9 23.1 98 0.3 SE 26 37 14 20 1009.0 - 7.2
28/03:30pm 23.4 23.8 23.1 98 0.2 ESE 26 37 14 20 1009.0 - 7.2
28/03:17pm 23.5 24.3 23.1 98 0.3 ESE 24 35 13 19 1009.1 - 7.0
28/03:06pm 23.5 23.9 23.1 98 0.3 ESE 26 39 14 21 1009.2 - 6.6
28/03:00pm 23.5 23.9 23.1 98 0.3 ESE 26 35 14 19 1009.2 - 6.4
28/02:30pm 23.5 24.2 22.9 96 0.4 ESE 24 33 13 18 1009.6 - 4.4
28/02:05pm 23.3 23.5 22.7 96 0.4 ESE 26 41 14 22 1010.1 - 4.0
28/02:00pm 23.3 23.8 22.7 96 0.4 ESE 24 33 13 18 1010.2 - 4.0
28/01:41pm 23.3 23.8 22.7 96 0.4 ESE 24 35 13 19 1010.6 - 3.8
28/01:30pm 23.0 23.3 22.3 96 0.5 ESE 24 44 13 24 1010.9 - 3.8
28/01:04pm 23.3 24.2 22.7 96 0.4 SE 22 35 12 19 1011.1 - 3.0
28/01:00pm 23.2 24.5 22.6 96 0.4 SE 20 30 11 16 1011.1 1009.7 3.0
28/12:31pm 23.1 23.3 22.1 94 0.7 ESE 24 39 13 21 1011.6 - 2.2
28/12:30pm 23.0 23.2 22.0 94 0.7 ESE 24 39 13 21 1011.6 - 2.2
28/12:12pm 23.3 23.4 22.6 96 0.5 ESE 26 37 14 20 1011.6 - 1.8
28/12:00pm 23.3 23.0 22.6 96 0.5 ESE 28 37 15 20 1011.7 - 1.2
28/11:51am 23.1 23.1 22.4 96 0.5 SE 26 39 14 21 1011.8 - 1.0
28/11:34am 23.0 22.9 22.3 96 0.5 SE 26 37 14 20 1012.1 - 0.6
28/11:30am 23.2 23.6 22.5 96 0.5 SE 24 35 13 19 1012.1 - 0.2
28/11:00am 23.1 23.8 22.2 95 0.6 SE 22 35 12 19 1012.6 - 0.2
28/10:30am 23.1 23.5 22.5 96 0.4 SE 24 35 13 19 1012.7 - 0.2
28/10:29am 23.1 23.5 22.5 96 0.4 SE 24 35 13 19 1012.7 - 0.2
28/10:09am 23.0 23.8 22.4 96 0.4 SE 22 39 12 21 1012.9 - 0.2
28/10:00am 22.8 23.1 22.2 96 0.4 SE 24 33 13 18 1012.9 1011.5 18.8
28/09:30am 22.6 23.5 21.9 96 0.5 SE 20 30 11 16 1013.1 - 18.6
28/09:00am 22.5 22.6 21.9 96 0.4 SE 24 35 13 19 1012.9 - 18.6
28/08:51am 22.3 22.4 21.9 98 0.3 SE 24 33 13 18 1012.9 - 18.6
28/08:30am 22.7 23.1 22.4 98 0.2 SE 24 37 13 20 1012.4 - 18.4
28/08:00am 22.5 22.7 22.1 98 0.3 SE 24 37 13 20 1012.1 - 17.8
28/07:43am 22.8 23.2 22.4 98 0.3 SE 24 35 13 19 1011.9 - 17.6
28/07:30am 22.6 23.3 22.2 98 0.3 SE 22 35 12 19 1011.9 - 17.4
28/07:00am 22.2 22.5 21.6 96 0.4 SE 22 35 12 19 1011.6 1010.2 16.2
28/06:30am 22.3 22.3 21.7 96 0.4 SE 24 35 13 19 1011.3 - 14.4
28/06:00am 22.3 22.4 21.9 98 0.3 SE 24 33 13 18 1010.9 - 13.6
28/05:30am 22.0 21.5 21.5 97 0.3 SE 26 37 14 20 1010.9 - 12.8
28/05:00am 22.4 22.1 21.8 96 0.4 SE 26 41 14 22 1010.6 - 11.4
28/04:50am 22.2 22.2 21.6 96 0.4 SE 24 32 13 17 1010.6 - 11.0
28/04:30am 21.9 21.4 21.4 97 0.3 SE 26 39 14 21 1010.7 - 10.8
28/04:24am 22.1 22.1 21.6 97 0.3 SE 24 39 13 21 1010.7 - 10.8
28/04:18am 22.3 22.8 21.9 98 0.3 SE 22 33 12 18 1010.7 - 10.6
28/04:00am 22.3 23.2 21.9 98 0.3 SE 20 39 11 21 1010.8 1009.4 10.6
28/03:32am 22.3 23.2 21.9 98 0.3 SE 20 32 11 17 1010.8 - 10.6
28/03:31am 22.3 23.2 21.9 98 0.3 SE 20 32 11 17 1010.8 - 10.6
28/03:30am 22.2 23.0 21.7 97 0.3 SE 20 32 11 17 1010.8 - 10.6
28/03:00am 22.3 22.7 21.7 96 0.4 SE 22 32 12 17 1010.8 - 8.2
28/02:30am 22.1 22.4 21.5 96 0.4 SE 22 35 12 19 1011.0 - 6.6
28/02:16am 22.7 23.1 21.8 95 0.6 SE 22 33 12 18 1011.0 - 5.4
28/02:00am 22.7 22.6 21.5 93 0.8 SE 24 35 13 19 1010.9 - 5.0
28/01:30am 22.7 23.4 21.5 93 0.8 SE 20 32 11 17 1011.7 - 5.0
28/01:00am 22.6 23.2 21.4 93 0.8 SE 20 32 11 17 1012.2 1010.7 4.8
28/12:30am 22.5 23.1 21.4 93 0.7 SE 20 32 11 17 1012.9 - 4.6
28/12:07am 22.6 23.5 21.5 93 0.7 SE 19 28 10 15 1013.3 - 4.6
28/12:00am 22.5 23.3 21.4 93 0.7 SE 19 28 10 15 1013.4 - 4.6
 
Date/Time
WST
Temp
°C
App
Temp
°C
Dew
Point
°C
Rel
Hum
%
Delta-T
°C
Wind Press
QNH
hPa
Press
MSL
hPa
Rain since
9am
mm
Dir  Spd
km/h
Gust
km/h
Spd
kts
Gust
kts
27/11:30pm 22.8 23.8 21.8 94 0.7 SE 19 30 10 16 1013.5 - 4.4
27/11:22pm 22.8 23.7 21.6 93 0.8 SE 19 30 10 16 1013.6 - 4.4
27/11:00pm 22.9 23.8 21.5 92 0.9 SE 19 28 10 15 1013.7 - 4.0
27/10:30pm 22.8 22.7 21.4 92 0.9 SE 24 35 13 19 1013.4 - 4.0
27/10:00pm 22.8 23.2 21.8 94 0.7 SE 22 33 12 18 1013.5 1012.1 4.0
27/09:30pm 22.6 23.3 21.5 93 0.7 SE 20 30 11 16 1013.2 - 4.0
27/09:00pm 22.6 23.4 21.7 95 0.6 SE 20 30 11 16 1013.1 - 4.0
27/08:30pm 22.7 23.0 21.6 93 0.7 SE 22 35 12 19 1012.9 - 3.4
27/08:00pm 22.8 22.4 21.6 93 0.8 SE 26 37 14 20 1012.6 - 3.0
27/07:30pm 22.9 23.1 21.4 91 1.0 SE 22 33 12 18 1012.6 - 2.8
27/07:00pm 22.9 23.3 21.7 93 0.8 SE 22 33 12 18 1012.3 1010.8 2.8
27/06:30pm 22.7 23.7 21.8 95 0.6 SE 19 30 10 16 1011.9 - 2.8
27/06:00pm 22.6 23.6 21.7 95 0.6 SE 19 30 10 16 1011.4 - 2.6
27/05:30pm 22.4 23.1 21.6 95 0.5 SE 20 32 11 17 1011.0 - 2.6
27/05:21pm 22.6 23.1 22.0 96 0.4 SE 22 33 12 18 1010.9 - 2.6
27/05:00pm 22.6 23.1 22.0 96 0.4 SE 22 33 12 18 1010.6 - 2.6
27/04:50pm 22.8 23.1 22.2 96 0.4 SE 24 35 13 19 1010.4 - 2.6
27/04:40pm 22.6 22.7 21.9 96 0.5 SE 24 33 13 18 1010.5 - 2.6
27/04:30pm 22.5 22.6 21.9 96 0.4 SE 24 44 13 24 1010.6 - 2.4
27/04:00pm 22.6 23.1 22.0 96 0.4 SE 22 37 12 20 1010.5 1009.1 1.8
27/03:47pm 22.8 23.8 22.2 96 0.4 SE 20 33 11 18 1010.6 - 1.8
27/03:40pm 22.8 24.0 22.1 96 0.5 SE 19 35 10 19 1010.7 - 1.8
27/03:30pm 22.7 23.3 22.1 96 0.4 SE 22 32 12 17 1010.8 - 1.6
27/03:00pm 23.2 24.4 22.5 96 0.5 SE 20 28 11 15 1011.1 - 1.2
27/02:50pm 23.2 24.3 22.3 95 0.6 SE 20 32 11 17 1011.2 - 1.2
27/02:30pm 23.0 23.4 21.7 92 0.9 SE 22 32 12 17 1011.4 - 1.2
27/02:15pm 22.8 23.6 21.3 91 1.0 SE 19 30 10 16 1011.6 - 1.0
27/02:00pm 22.7 23.5 21.8 95 0.6 SE 20 33 11 18 1011.9 - 1.0
27/01:54pm 22.7 22.8 21.8 95 0.6 SE 24 37 13 20 1012.2 - 1.0
27/01:30pm 23.3 23.7 21.7 91 1.1 SE 22 35 12 19 1012.3 - 1.0
27/01:07pm 22.8 23.2 21.8 94 0.7 SE 22 35 12 19 1012.5 - 1.0
27/01:00pm 22.9 23.8 22.0 95 0.6 SE 20 35 11 19 1012.6 1011.1 1.0
27/12:47pm 23.2 23.9 22.2 94 0.7 SE 22 35 12 19 1012.7 - 1.0
27/12:30pm 23.3 23.4 21.8 91 1.0 SE 24 37 13 20 1012.9 - 0.2
27/12:00pm 23.1 22.8 21.9 93 0.8 SE 26 44 14 24 1013.2 - 0.2
27/11:33am 23.2 23.5 22.2 94 0.7 SE 24 35 13 19 1013.6 - 0.2
27/11:30am 23.1 23.3 22.1 94 0.7 SE 24 39 13 21 1013.7 - 0.2
27/11:20am 22.9 22.7 22.0 95 0.6 SE 26 39 14 21 1013.9 - 0.2
27/11:00am 23.1 23.3 22.1 94 0.7 SE 24 33 13 18 1014.0 - 0.2
27/10:31am 22.9 22.5 22.3 96 0.4 SE 28 39 15 21 1014.0 - 0.2
27/10:30am 22.9 22.5 22.3 96 0.4 SE 28 39 15 21 1014.0 - 0.2
27/10:00am 23.0 23.8 22.4 96 0.4 SE 22 32 12 17 1014.1 1012.7 117.4
27/09:52am 22.9 23.2 22.2 96 0.5 SE 24 32 13 17 1014.2 - 117.4
27/09:30am 23.0 23.2 22.1 95 0.6 SE 24 35 13 19 1014.2 - 116.4
27/09:29am 22.9 23.2 22.2 96 0.5 SE 24 35 13 19 1014.2 - 116.4
27/09:23am 22.9 23.9 22.2 96 0.5 SE 20 32 11 17 1014.1 - 116.0
27/09:04am 23.0 23.4 21.8 93 0.8 SE 22 35 12 19 1014.0 - 115.0
27/09:00am 23.0 23.4 21.8 93 0.8 SE 22 35 12 19 1014.0 - 114.2
27/08:34am 22.9 23.5 21.4 91 1.0 SE 20 33 11 18 1013.8 - 113.6
27/08:30am 22.9 23.1 21.4 91 1.0 SE 22 33 12 18 1013.7 - 113.6
27/08:17am 23.0 23.8 21.8 93 0.8 SE 20 30 11 16 1013.5 - 113.6
27/08:16am 23.0 23.8 21.8 93 0.8 SE 20 30 11 16 1013.5 - 113.2
27/08:00am 22.8 23.1 21.6 93 0.8 SE 22 35 12 19 1013.3 - 113.0
27/07:52am 22.9 22.4 21.5 92 0.9 ESE 26 37 14 20 1013.2 - 112.8
27/07:30am 23.4 23.6 21.3 88 1.4 SE 22 35 12 19 1012.7 - 112.2
27/07:00am 23.4 23.0 21.6 90 1.2 SE 26 37 14 20 1011.9 1010.5 112.2
27/06:30am 23.4 23.2 21.3 88 1.4 SE 24 37 13 20 1011.5 - 112.2
27/06:00am 23.2 23.0 21.2 88 1.3 SE 24 37 13 20 1011.1 - 112.2
27/05:30am 23.1 23.1 21.6 91 1.0 SE 24 35 13 19 1011.0 - 112.2
27/05:00am 22.9 22.7 21.2 90 1.1 SE 24 35 13 19 1011.0 - 112.0
27/04:30am 22.8 22.7 21.4 92 0.9 SE 24 35 13 19 1010.9 - 112.0
27/04:00am 22.5 22.5 21.6 95 0.6 SE 24 37 13 20 1011.1 1009.7 111.8

Other Formats:

Comma delimited format used in spreadsheet applications
http://www.bom.gov.au/fwo/IDW60801/IDW60801.96995.axf

JavaScript Object Notation format (JSON) in row-major order
http://www.bom.gov.au/fwo/IDW60801/IDW60801.96995.json